createdAt,value
2023-05-16T00:00:18.341Z,15.90
2023-05-16T00:02:45.317Z,9.60
2023-05-16T00:05:12.271Z,12.70
2023-05-16T00:07:42.782Z,12.07
2023-05-16T00:10:10.126Z,9.80
2023-05-16T00:12:36.908Z,13.93
2023-05-16T00:15:04.020Z,9.70
2023-05-16T00:17:30.765Z,12.00
2023-05-16T00:19:58.552Z,10.03
2023-05-16T00:22:25.402Z,12.10
2023-05-16T00:24:53.706Z,11.40
2023-05-16T00:27:20.348Z,10.87
2023-05-16T00:29:47.000Z,12.30
2023-05-16T00:32:13.829Z,10.80
2023-05-16T00:34:40.558Z,14.37
2023-05-16T00:37:07.246Z,12.07
2023-05-16T00:39:33.881Z,14.53
2023-05-16T00:42:02.039Z,18.47
2023-05-16T00:44:28.765Z,16.43
2023-05-16T00:46:55.420Z,13.67
2023-05-16T00:49:22.214Z,15.00
2023-05-16T00:51:48.887Z,15.50
2023-05-16T00:54:15.622Z,20.60
2023-05-16T00:56:42.330Z,13.90
2023-05-16T00:59:10.561Z,12.20
2023-05-16T01:01:38.199Z,16.30
2023-05-16T01:04:05.885Z,13.50
2023-05-16T01:06:33.307Z,14.77
2023-05-16T01:09:00.236Z,14.23
2023-05-16T01:11:33.749Z,15.77
2023-05-16T01:14:12.164Z,14.57
2023-05-16T01:16:46.298Z,17.07
2023-05-16T01:19:20.842Z,16.10
2023-05-16T01:21:49.776Z,24.53
2023-05-16T01:24:27.226Z,16.00
2023-05-16T01:26:57.085Z,15.10
2023-05-16T01:29:23.912Z,17.53
2023-05-16T01:31:50.662Z,12.57
2023-05-16T01:34:17.331Z,10.43
2023-05-16T01:36:52.771Z,11.10
2023-05-16T01:39:27.048Z,13.17
2023-05-16T01:42:03.641Z,8.50
2023-05-16T01:44:36.428Z,13.67
2023-05-16T01:47:09.575Z,8.77
2023-05-16T01:49:42.392Z,11.13
2023-05-16T01:52:13.299Z,8.07
2023-05-16T01:54:43.829Z,11.33
2023-05-16T01:57:13.779Z,9.70
2023-05-16T01:59:41.517Z,10.20
2023-05-16T02:02:08.194Z,7.43
2023-05-16T02:04:34.846Z,10.93
2023-05-16T02:07:01.897Z,7.20
2023-05-16T02:09:28.573Z,7.40
2023-05-16T02:11:55.286Z,11.93
2023-05-16T02:14:23.350Z,11.30
2023-05-16T02:16:50.014Z,11.90
2023-05-16T02:19:16.809Z,8.10
2023-05-16T02:21:43.504Z,10.10
2023-05-16T02:24:10.192Z,9.57
2023-05-16T02:26:36.836Z,7.77
2023-05-16T02:29:03.589Z,11.50
2023-05-16T02:31:33.417Z,7.47
2023-05-16T02:34:00.857Z,6.20
2023-05-16T02:36:27.860Z,6.00
2023-05-16T02:38:54.607Z,9.47
2023-05-16T02:41:21.264Z,6.40
2023-05-16T02:43:47.987Z,8.33
2023-05-16T02:46:25.922Z,7.27
2023-05-16T02:48:54.824Z,7.50
2023-05-16T02:51:23.189Z,10.80
2023-05-16T02:53:50.452Z,6.53
2023-05-16T02:56:17.503Z,4.43
2023-05-16T02:58:46.770Z,7.87
2023-05-16T03:01:14.092Z,4.60
2023-05-16T03:03:40.896Z,7.93
2023-05-16T03:06:09.135Z,7.77
2023-05-16T03:08:35.826Z,6.90
2023-05-16T03:11:02.553Z,5.23
2023-05-16T03:13:29.210Z,5.40
2023-05-16T03:15:56.513Z,6.43
2023-05-16T03:18:23.287Z,6.27
2023-05-16T03:20:50.005Z,6.77
2023-05-16T03:23:18.086Z,8.83
2023-05-16T03:25:44.860Z,6.30
2023-05-16T03:28:12.832Z,7.30
2023-05-16T03:30:41.326Z,6.23
2023-05-16T03:33:08.100Z,4.70
2023-05-16T03:35:35.499Z,7.87
2023-05-16T03:38:02.290Z,11.17
2023-05-16T03:40:30.527Z,10.93
2023-05-16T03:42:57.246Z,6.13
2023-05-16T03:45:24.123Z,6.13
2023-05-16T03:47:50.975Z,4.30
2023-05-16T03:50:17.914Z,6.20
2023-05-16T03:52:44.830Z,3.77
2023-05-16T03:55:11.486Z,6.50
2023-05-16T03:57:39.507Z,7.80
2023-05-16T04:00:07.446Z,7.33
2023-05-16T04:02:34.267Z,3.40
2023-05-16T04:05:00.954Z,9.27
2023-05-16T04:07:27.605Z,3.50
2023-05-16T04:09:54.720Z,3.97
2023-05-16T04:12:21.530Z,4.07
2023-05-16T04:14:49.538Z,5.47
2023-05-16T04:17:16.263Z,5.27
2023-05-16T04:19:43.047Z,5.10
2023-05-16T04:22:09.712Z,3.53
2023-05-16T04:24:36.356Z,8.57
2023-05-16T04:27:03.084Z,4.50
2023-05-16T04:29:29.725Z,3.90
2023-05-16T04:31:58.101Z,7.57
2023-05-16T04:34:24.876Z,10.20
2023-05-16T04:36:51.528Z,6.30
2023-05-16T04:39:18.176Z,4.03
2023-05-16T04:41:44.840Z,7.73
2023-05-16T04:44:11.599Z,7.63
2023-05-16T04:46:38.495Z,5.23
2023-05-16T04:49:06.538Z,3.10
2023-05-16T04:51:33.341Z,4.83
2023-05-16T04:54:00.054Z,7.13
2023-05-16T04:56:26.709Z,3.80
2023-05-16T04:58:53.470Z,7.30
2023-05-16T05:01:20.351Z,5.23
2023-05-16T05:03:48.297Z,5.33
2023-05-16T05:06:16.538Z,5.30
2023-05-16T05:08:43.224Z,6.33
2023-05-16T05:11:09.880Z,10.03
2023-05-16T05:13:36.688Z,4.10
2023-05-16T05:16:03.633Z,4.70
2023-05-16T05:18:30.403Z,2.90
2023-05-16T05:20:57.176Z,4.73
2023-05-16T05:23:25.215Z,4.13
2023-05-16T05:25:51.982Z,2.80
2023-05-16T05:28:18.616Z,5.67
2023-05-16T05:30:45.288Z,5.53
2023-05-16T05:33:14.088Z,10.23
2023-05-16T05:35:40.788Z,6.07
2023-05-16T05:38:07.445Z,5.37
2023-05-16T05:40:35.412Z,5.33
2023-05-16T05:43:02.093Z,3.23
2023-05-16T05:45:29.031Z,6.50
2023-05-16T05:47:55.981Z,4.93
2023-05-16T05:50:22.720Z,5.60
2023-05-16T05:52:49.436Z,3.33
2023-05-16T05:55:16.112Z,9.37
2023-05-16T05:57:44.154Z,2.43
2023-05-16T06:00:12.267Z,5.10
2023-05-16T06:02:48.855Z,6.27
2023-05-16T06:05:16.193Z,7.10
2023-05-16T06:07:42.852Z,3.70
2023-05-16T06:10:09.919Z,4.47
2023-05-16T06:12:36.705Z,5.43
2023-05-16T06:15:05.538Z,2.40
2023-05-16T06:17:32.219Z,3.07
2023-05-16T06:19:58.884Z,4.00
2023-05-16T06:22:25.544Z,3.97
2023-05-16T06:24:52.208Z,2.33
2023-05-16T06:27:18.857Z,5.13
2023-05-16T06:29:45.523Z,6.23
2023-05-16T06:32:13.648Z,2.80
2023-05-16T06:34:40.379Z,4.70
2023-05-16T06:37:07.082Z,3.37
2023-05-16T06:39:33.766Z,3.60
2023-05-16T06:42:00.482Z,2.23
2023-05-16T06:44:27.189Z,3.13
2023-05-16T06:46:53.952Z,5.07
2023-05-16T06:49:22.080Z,4.03
2023-05-16T06:51:48.790Z,4.10
2023-05-16T06:54:15.487Z,4.30
2023-05-16T06:56:42.181Z,1.37
2023-05-16T06:59:09.135Z,3.67
2023-05-16T07:01:35.872Z,2.60
2023-05-16T07:04:02.905Z,4.93
2023-05-16T07:06:31.080Z,8.30
2023-05-16T07:08:57.808Z,6.53
2023-05-16T07:11:24.593Z,4.03
2023-05-16T07:13:51.377Z,2.60
2023-05-16T07:16:18.186Z,8.50
2023-05-16T07:18:44.992Z,5.03
2023-05-16T07:21:11.701Z,9.13
2023-05-16T07:23:39.753Z,5.47
2023-05-16T07:26:06.488Z,7.27
2023-05-16T07:28:33.207Z,8.13
2023-05-16T07:30:59.885Z,9.27
2023-05-16T07:33:26.686Z,10.03
2023-05-16T07:36:00.865Z,9.33
2023-05-16T07:38:35.061Z,8.53
2023-05-16T07:41:03.114Z,9.20
2023-05-16T07:43:30.354Z,7.37
2023-05-16T07:45:57.299Z,8.93
2023-05-16T07:48:24.088Z,13.27
2023-05-16T07:50:51.004Z,9.17
2023-05-16T07:53:17.741Z,8.70
2023-05-16T07:55:44.604Z,6.87
2023-05-16T07:58:12.762Z,8.37
2023-05-16T08:00:39.483Z,7.20
2023-05-16T08:03:06.540Z,11.97
2023-05-16T08:05:33.457Z,13.23
2023-05-16T08:08:00.287Z,7.33
2023-05-16T08:10:27.077Z,7.23
2023-05-16T08:12:54.167Z,7.40
2023-05-16T08:15:22.257Z,9.33
2023-05-16T08:17:48.990Z,5.00
2023-05-16T08:20:15.922Z,12.37
2023-05-16T08:22:42.661Z,6.27
2023-05-16T08:25:09.770Z,8.87
2023-05-16T08:27:36.504Z,10.63
2023-05-16T08:30:03.653Z,9.73
2023-05-16T08:32:31.811Z,9.67
2023-05-16T08:34:58.851Z,12.70
2023-05-16T08:37:25.572Z,12.43
2023-05-16T08:39:52.300Z,6.03
2023-05-16T08:42:19.250Z,6.60
2023-05-16T08:44:46.017Z,9.33
2023-05-16T08:47:18.092Z,12.73
2023-05-16T08:49:48.494Z,9.53
2023-05-16T08:52:19.555Z,8.53
2023-05-16T08:54:50.392Z,7.10
2023-05-16T08:57:22.469Z,8.73
2023-05-16T08:59:49.556Z,7.53
2023-05-16T09:02:16.827Z,9.13
2023-05-16T09:04:45.098Z,10.70
2023-05-16T09:07:13.154Z,21.47
2023-05-16T09:09:39.914Z,6.63
2023-05-16T09:12:07.566Z,8.47
2023-05-16T09:14:34.530Z,7.70
2023-05-16T09:17:09.671Z,11.27
2023-05-16T09:19:38.891Z,13.33
2023-05-16T09:22:07.232Z,10.37
2023-05-16T09:24:38.656Z,8.00
2023-05-16T09:27:09.409Z,14.23
2023-05-16T09:29:37.122Z,6.27
2023-05-16T09:32:12.160Z,8.70
2023-05-16T09:34:42.971Z,8.00
2023-05-16T09:37:10.476Z,11.03
2023-05-16T09:39:39.434Z,8.47
2023-05-16T09:42:06.838Z,8.23
2023-05-16T09:44:33.653Z,9.40
2023-05-16T09:47:01.014Z,7.27
2023-05-16T09:49:27.863Z,9.03
2023-05-16T09:51:55.419Z,8.20
2023-05-16T09:54:30.541Z,13.30
2023-05-16T09:57:00.233Z,8.70
2023-05-16T09:59:29.290Z,15.53
2023-05-16T10:01:58.430Z,7.07
2023-05-16T10:04:25.355Z,6.57
2023-05-16T10:06:54.874Z,8.47
2023-05-16T10:09:22.911Z,10.70
2023-05-16T10:11:51.614Z,5.77
2023-05-16T10:14:20.724Z,8.80
2023-05-16T10:16:48.834Z,9.23
2023-05-16T10:19:17.045Z,5.00
2023-05-16T10:21:51.175Z,7.10
2023-05-16T10:24:22.232Z,10.10
2023-05-16T10:26:50.088Z,9.87
2023-05-16T10:29:19.494Z,8.80
2023-05-16T10:31:47.719Z,9.53
2023-05-16T10:34:16.229Z,7.33
2023-05-16T10:36:44.153Z,7.33
2023-05-16T10:39:11.687Z,7.27
2023-05-16T10:41:38.684Z,6.67
2023-05-16T10:44:13.779Z,7.43
2023-05-16T10:46:42.162Z,7.40
2023-05-16T10:49:20.699Z,5.53
2023-05-16T10:52:02.448Z,9.67
2023-05-16T10:54:35.379Z,6.53
2023-05-16T10:57:05.787Z,5.20
2023-05-16T10:59:40.747Z,9.33
2023-05-16T11:02:22.514Z,8.63
2023-05-16T11:04:50.264Z,10.67
2023-05-16T11:07:18.994Z,8.93
2023-05-16T11:09:46.078Z,8.70
2023-05-16T11:12:13.389Z,10.13
2023-05-16T11:14:41.201Z,4.50
2023-05-16T11:17:12.188Z,8.00
2023-05-16T11:19:44.005Z,6.43
2023-05-16T11:22:26.205Z,9.67
2023-05-16T11:24:58.928Z,7.17
2023-05-16T11:27:29.458Z,7.33
2023-05-16T11:30:02.620Z,5.87
2023-05-16T11:32:34.023Z,8.30
2023-05-16T11:35:01.428Z,5.50
2023-05-16T11:37:28.234Z,9.53
2023-05-16T11:39:59.221Z,8.17
2023-05-16T11:42:29.938Z,7.33
2023-05-16T11:45:04.985Z,7.53
2023-05-16T11:47:33.372Z,6.67
2023-05-16T11:50:00.264Z,10.60
2023-05-16T11:52:27.098Z,3.93
2023-05-16T11:54:53.852Z,5.87
2023-05-16T11:57:21.781Z,10.50
2023-05-16T11:59:48.521Z,5.50
2023-05-16T12:02:15.252Z,9.73
2023-05-16T12:04:46.518Z,6.53
2023-05-16T12:07:13.358Z,8.53
2023-05-16T12:09:40.039Z,9.17
2023-05-16T12:12:08.218Z,4.33
2023-05-16T12:14:35.196Z,6.30
2023-05-16T12:17:02.255Z,3.77
2023-05-16T12:19:29.128Z,7.90
2023-05-16T12:21:57.478Z,7.40
2023-05-16T12:24:30.352Z,4.40
2023-05-16T12:26:57.485Z,5.13
2023-05-16T12:29:25.348Z,4.90
2023-05-16T12:31:53.562Z,3.20
2023-05-16T12:34:20.691Z,7.87
2023-05-16T12:36:52.121Z,4.60
2023-05-16T12:39:20.457Z,6.53
2023-05-16T12:41:47.333Z,4.77
2023-05-16T12:44:15.448Z,3.83
2023-05-16T12:46:43.185Z,6.43
2023-05-16T12:49:10.191Z,8.00
2023-05-16T12:51:36.988Z,4.67
2023-05-16T12:54:10.865Z,5.27
2023-05-16T12:56:39.443Z,3.43
2023-05-16T12:59:06.217Z,4.87
2023-05-16T13:01:33.044Z,7.00
2023-05-16T13:03:59.952Z,6.47
2023-05-16T13:06:26.981Z,7.03
2023-05-16T13:08:53.820Z,6.27
2023-05-16T13:11:20.770Z,5.13
2023-05-16T13:13:48.856Z,8.83
2023-05-16T13:16:15.679Z,5.33
2023-05-16T13:18:42.474Z,5.70
2023-05-16T13:21:09.280Z,4.40
2023-05-16T13:23:36.095Z,5.43
2023-05-16T13:26:02.933Z,6.33
2023-05-16T13:28:29.681Z,6.03
2023-05-16T13:30:59.624Z,4.93
2023-05-16T13:33:27.479Z,2.40
2023-05-16T13:35:54.343Z,5.07
2023-05-16T13:38:21.136Z,6.77
2023-05-16T13:40:47.950Z,3.10
2023-05-16T13:43:14.830Z,3.63
2023-05-16T13:45:41.633Z,4.60
2023-05-16T13:48:09.839Z,4.80
2023-05-16T13:53:10.312Z,5.97
2023-05-16T13:55:37.412Z,4.60
2023-05-16T13:58:04.170Z,5.80
2023-05-16T14:00:43.382Z,3.20
2023-05-16T14:03:13.226Z,3.57
2023-05-16T14:05:40.286Z,2.90
2023-05-16T14:08:07.053Z,6.00
2023-05-16T14:10:33.826Z,7.40
2023-05-16T14:13:00.617Z,3.73
2023-05-16T14:15:27.773Z,7.20
2023-05-16T14:17:54.688Z,3.07
2023-05-16T14:20:23.108Z,8.77
2023-05-16T14:22:49.949Z,6.20
2023-05-16T14:25:16.792Z,5.93
2023-05-16T14:27:43.490Z,7.53
2023-05-16T14:30:11.008Z,4.43
2023-05-16T14:32:37.826Z,2.90
2023-05-16T14:35:05.157Z,2.93
2023-05-16T14:37:33.259Z,3.07
2023-05-16T14:39:59.997Z,2.87
2023-05-16T14:42:26.708Z,3.37
2023-05-16T14:44:53.479Z,4.40
2023-05-16T14:47:20.192Z,7.03
2023-05-16T14:49:46.895Z,4.33
2023-05-16T14:52:13.963Z,5.40
2023-05-16T14:54:41.997Z,5.13
2023-05-16T14:57:09.136Z,5.10
2023-05-16T14:59:35.868Z,3.90
2023-05-16T15:02:02.703Z,2.87
2023-05-16T15:04:29.649Z,5.00
2023-05-16T15:06:56.499Z,3.90
2023-05-16T15:09:23.219Z,4.40
2023-05-16T15:11:51.364Z,4.23
2023-05-16T15:14:18.084Z,5.57
2023-05-16T15:16:44.929Z,3.33
2023-05-16T15:19:11.890Z,3.47
2023-05-16T15:21:38.921Z,3.13
2023-05-16T15:24:06.291Z,4.50
2023-05-16T15:26:33.036Z,5.30
2023-05-16T15:29:01.148Z,9.03
2023-05-16T15:31:27.882Z,5.80
2023-05-16T15:33:54.596Z,6.40
2023-05-16T15:36:21.355Z,2.47
2023-05-16T15:38:48.093Z,4.70
2023-05-16T15:41:31.450Z,4.83
2023-05-16T15:44:02.862Z,5.47
2023-05-16T15:46:29.673Z,4.30
2023-05-16T15:48:56.792Z,6.70
2023-05-16T15:51:23.491Z,2.20
2023-05-16T15:53:50.255Z,2.17
2023-05-16T15:56:16.976Z,2.40
2023-05-16T15:58:43.689Z,6.30
2023-05-16T16:01:11.814Z,6.73
2023-05-16T16:03:38.681Z,5.17
2023-05-16T16:06:05.645Z,5.73
2023-05-16T16:08:32.501Z,2.57
2023-05-16T16:10:59.191Z,4.23
2023-05-16T16:13:25.882Z,3.53
2023-05-16T16:15:52.647Z,2.10
2023-05-16T16:18:20.969Z,1.57
2023-05-16T16:20:47.683Z,2.43
2023-05-16T16:23:14.472Z,3.60
2023-05-16T16:25:41.194Z,2.63
2023-05-16T16:28:07.917Z,3.47
2023-05-16T16:30:34.637Z,1.57
2023-05-16T16:33:01.563Z,5.90
2023-05-16T16:35:30.051Z,1.53
2023-05-16T16:38:06.086Z,2.50
2023-05-16T16:40:34.000Z,3.00
2023-05-16T16:43:00.751Z,5.90
2023-05-16T16:45:27.737Z,2.53
2023-05-16T16:47:54.953Z,7.73
2023-05-16T16:50:21.895Z,2.57
2023-05-16T16:52:49.961Z,3.30
2023-05-16T16:55:16.785Z,2.70
2023-05-16T16:57:43.480Z,4.30
2023-05-16T17:00:11.547Z,4.83
2023-05-16T17:02:38.658Z,4.87
2023-05-16T17:05:06.528Z,4.17
2023-05-16T17:07:34.014Z,7.67
2023-05-16T17:10:02.172Z,7.63
2023-05-16T17:12:28.982Z,5.17
2023-05-16T17:14:55.847Z,2.70
2023-05-16T17:17:22.683Z,4.90
2023-05-16T17:19:49.434Z,6.93
2023-05-16T17:22:16.143Z,6.27
2023-05-16T17:24:42.838Z,4.60
2023-05-16T17:27:11.984Z,3.30
2023-05-16T17:29:38.663Z,7.33
2023-05-16T17:32:06.047Z,7.23
2023-05-16T17:34:32.789Z,5.37
2023-05-16T17:36:59.651Z,10.80
2023-05-16T17:39:26.397Z,2.87
2023-05-16T17:41:53.167Z,5.00
2023-05-16T17:44:21.216Z,5.57
2023-05-16T17:46:47.919Z,3.67
2023-05-16T17:49:14.793Z,2.20
2023-05-16T17:51:45.782Z,4.20
2023-05-16T17:54:12.591Z,2.07
2023-05-16T17:56:41.229Z,9.13
2023-05-16T17:59:07.984Z,9.37
2023-05-16T18:01:36.068Z,6.57
2023-05-16T18:04:02.918Z,2.43
2023-05-16T18:06:29.721Z,4.03
2023-05-16T18:08:56.403Z,2.30
2023-05-16T18:11:23.257Z,2.97
2023-05-16T18:13:50.088Z,2.77
2023-05-16T18:16:17.157Z,4.60
2023-05-16T18:18:45.409Z,3.10
2023-05-16T18:21:12.195Z,4.63
2023-05-16T18:23:38.919Z,7.40
2023-05-16T18:26:05.648Z,7.30
2023-05-16T18:28:32.394Z,3.03
2023-05-16T18:30:59.479Z,3.70
2023-05-16T18:33:29.514Z,1.90
2023-05-16T18:36:02.629Z,2.57
2023-05-16T18:38:33.020Z,4.00
2023-05-16T18:41:00.533Z,4.97
2023-05-16T18:43:27.263Z,3.73
2023-05-16T18:45:57.502Z,5.90
2023-05-16T18:48:24.316Z,8.97
2023-05-16T18:50:51.277Z,4.00
2023-05-16T18:53:19.343Z,4.27
2023-05-16T18:55:46.171Z,2.63
2023-05-16T18:58:12.879Z,6.33
2023-05-16T19:00:39.728Z,2.93
2023-05-16T19:03:06.530Z,3.30
2023-05-16T19:05:33.665Z,3.07
2023-05-16T19:08:00.744Z,5.63
2023-05-16T19:10:28.914Z,13.33
2023-05-16T19:12:55.733Z,2.63
2023-05-16T19:15:22.568Z,3.37
2023-05-16T19:17:49.438Z,4.10
2023-05-16T19:20:16.410Z,2.93
2023-05-16T19:22:43.069Z,3.53
2023-05-16T19:25:10.181Z,5.97
2023-05-16T19:27:38.177Z,3.47
2023-05-16T19:30:06.226Z,4.27
2023-05-16T19:32:33.022Z,5.87
2023-05-16T19:34:59.849Z,3.07
2023-05-16T19:37:26.741Z,7.17
2023-05-16T19:39:53.465Z,3.50
2023-05-16T19:42:20.163Z,2.47
2023-05-16T19:44:48.178Z,1.80
2023-05-16T19:47:14.963Z,6.67
2023-05-16T19:49:41.696Z,6.07
2023-05-16T19:52:10.058Z,7.67
2023-05-16T19:54:36.768Z,4.83
2023-05-16T19:57:04.625Z,6.80
2023-05-16T19:59:33.809Z,5.13
2023-05-16T20:02:01.846Z,3.00
2023-05-16T20:04:28.767Z,3.50
2023-05-16T20:06:55.596Z,3.90
2023-05-16T20:09:22.326Z,5.80
2023-05-16T20:11:49.202Z,3.50
2023-05-16T20:14:15.921Z,3.10
2023-05-16T20:16:42.614Z,3.43
2023-05-16T20:19:10.857Z,5.60
2023-05-16T20:21:37.633Z,3.47
2023-05-16T20:24:04.413Z,2.30
2023-05-16T20:26:31.091Z,2.83
2023-05-16T20:28:57.762Z,4.53
2023-05-16T20:31:24.534Z,2.73
2023-05-16T20:33:51.309Z,2.07
2023-05-16T20:36:19.448Z,3.43
2023-05-16T20:38:46.155Z,6.60
2023-05-16T20:41:12.876Z,4.37
2023-05-16T20:43:39.609Z,3.77
2023-05-16T20:46:06.506Z,3.63
2023-05-16T20:48:33.267Z,4.53
2023-05-16T20:51:00.037Z,2.97
2023-05-16T20:53:28.086Z,4.63
2023-05-16T20:55:54.879Z,5.30
2023-05-16T20:58:21.862Z,2.20
2023-05-16T21:00:48.544Z,1.73
2023-05-16T21:03:15.234Z,4.07
2023-05-16T21:05:42.102Z,4.97
2023-05-16T21:08:08.875Z,4.13
2023-05-16T21:10:37.007Z,7.80
2023-05-16T21:13:03.723Z,6.47
2023-05-16T21:15:30.508Z,4.63
2023-05-16T21:17:57.479Z,2.70
2023-05-16T21:20:24.265Z,5.50
2023-05-16T21:22:50.943Z,5.90
2023-05-16T21:25:17.644Z,5.07
2023-05-16T21:27:45.688Z,6.20
2023-05-16T21:30:13.544Z,4.97
2023-05-16T21:32:40.288Z,13.60
2023-05-16T21:35:07.730Z,3.30
2023-05-16T21:37:34.511Z,5.73
2023-05-16T21:40:01.245Z,5.90
2023-05-16T21:42:27.923Z,11.00
2023-05-16T21:44:55.984Z,8.30
2023-05-16T21:47:22.763Z,8.07
2023-05-16T21:49:49.486Z,9.87
2023-05-16T21:52:16.187Z,8.33
2023-05-16T21:54:42.891Z,6.60
2023-05-16T21:57:09.582Z,6.00
2023-05-16T21:59:36.289Z,6.23
2023-05-16T22:02:04.781Z,5.17
2023-05-16T22:04:31.582Z,1.97
2023-05-16T22:06:58.340Z,3.53
2023-05-16T22:09:25.101Z,14.30
2023-05-16T22:11:51.781Z,2.80
2023-05-16T22:14:18.493Z,8.40
2023-05-16T22:16:45.317Z,2.83
2023-05-16T22:19:13.420Z,9.93
2023-05-16T22:21:40.120Z,5.93
2023-05-16T22:24:07.379Z,5.53
2023-05-16T22:26:34.156Z,7.43
2023-05-16T22:29:00.916Z,5.23
2023-05-16T22:31:27.751Z,2.87
2023-05-16T22:33:54.552Z,5.97
2023-05-16T22:36:22.609Z,5.23
2023-05-16T22:38:49.297Z,4.63
2023-05-16T22:41:16.121Z,5.70
2023-05-16T22:43:42.805Z,4.43
2023-05-16T22:46:09.524Z,4.77
2023-05-16T22:48:36.309Z,6.30
2023-05-16T22:51:03.034Z,5.90
2023-05-16T22:53:31.053Z,7.73
2023-05-16T22:55:57.952Z,4.30
2023-05-16T22:58:24.678Z,4.80
2023-05-16T23:00:53.886Z,3.63
2023-05-16T23:03:20.653Z,5.73
2023-05-16T23:05:47.425Z,5.50
2023-05-16T23:08:14.139Z,4.73
2023-05-16T23:10:42.604Z,5.33
2023-05-16T23:13:09.417Z,3.23
2023-05-16T23:15:36.162Z,4.40
2023-05-16T23:18:02.936Z,9.20
2023-05-16T23:20:29.746Z,5.90
2023-05-16T23:22:56.429Z,11.43
2023-05-16T23:25:23.523Z,3.73
2023-05-16T23:27:51.550Z,5.17
2023-05-16T23:30:18.366Z,5.53
2023-05-16T23:32:45.198Z,3.90
2023-05-16T23:35:11.928Z,6.90
2023-05-16T23:37:38.652Z,7.90
2023-05-16T23:40:06.802Z,6.63
2023-05-16T23:42:33.491Z,8.00
2023-05-16T23:45:01.568Z,5.20
2023-05-16T23:47:28.344Z,13.27
2023-05-16T23:49:55.077Z,4.87
2023-05-16T23:52:21.791Z,6.30
2023-05-16T23:54:48.504Z,9.30
2023-05-16T23:57:15.193Z,5.87
2023-05-16T23:59:41.979Z,7.10
